OMDBOENG

Guest
Details From OMDB - DUBAI INTL
To OENG - NEJRAN
Flight Number -
Tags decoded
Created
Modified
Stats Distance 764 nm / 1,415 km
Max Altitude 0 ft / 0 m
Waypoints 2
Social Downloads 0
Likes 0
Share VATSIM

Download

Looking for another format? Having issues loading an existing format? Contact us
Advertisement - Login to hide

Notes

Requested: OMDB OENG

Route

OMDB OENG

ID Type Via Altitude Latitude Longitude Leg Dist Tot Dist Heading (true) Name
O OMDB APT - 0 ft / 0 m 25.25491˚ 55.36426˚ - 0 nm - DUBAI INTL
O OENG APT - 0 ft / 0 m 17.61144˚ 44.41917˚ 764 nm 764 nm 235° / 231° NEJRAN

Altitude Profile

Advertisement - Login to hide

Weather


0- 5 10 15 20 25 30 35+ Temperature / ° C

Clouds and Precipitation
Forecast for 2018-05-27 18:00 UTC. Updated 5 hours ago

Ground ~20,000 ft ~40,000 ft Winds

OMDB

Details ICAO OMDB (DXB)
Name DUBAI INTL
Region United Arab Emirates
Timezone Asia/Dubai (UTC+4.0)
Stats Elevation 62 ft / 19 m (AMSL)
Location 25.254912° 55.364260°
Runways 2
Magnetic Variation 2.069° E

METAR

OMDB 272200Z 06003KT 020V110 CAVOK 33/22 Q1005 NOSIG

Decode

TAF

TAF OMDB 271701Z 2718/2900 09005KT CAVOK BECMG 2803/2805 19012KT BECMG 2808/2810 29014KT BECMG 2816/2818 01005KT

Decode

Departure Runways

ID Width Length Bearing (true) Bearing (mag) Surface Threshold Offset Overrun Length
12L 197 ft / 60 m 13,124 ft / 4,000 m 121.49° 119.42° Asphalt 1,312 ft / 400 m 395 ft / 120 m
12R 151 ft / 46 m 13,139 ft / 4,005 m 121.48° 119.41° Asphalt 394 ft / 120 m 197 ft / 60 m
30L 151 ft / 46 m 13,139 ft / 4,005 m 301.50° 299.43° Asphalt 2,953 ft / 900 m 197 ft / 60 m
30R 197 ft / 60 m 13,124 ft / 4,000 m 301.51° 299.44° Asphalt 0 ft / 0 m 395 ft / 120 m

OENG

Details ICAO OENG (EAM)
Name NEJRAN
Region Saudi Arabia
Timezone Asia/Riyadh (UTC+3.0)
Stats Elevation 3,982 ft / 1,214 m (AMSL)
Location 17.611436° 44.419170°
Runways 1
Magnetic Variation 2.461° E

METAR

OENG 272200Z 08007KT CAVOK 26/07 Q1016 NOSIG

Decode

TAF

Not found

Destination Runways

ID Width Length Bearing (true) Bearing (mag) Surface Threshold Offset Overrun Length
06 147 ft / 45 m 10,026 ft / 3,056 m 59.83° 57.37° Asphalt 0 ft / 0 m 895 ft / 273 m
24 147 ft / 45 m 10,026 ft / 3,056 m 239.84° 237.38° Asphalt 0 ft / 0 m 194 ft / 59 m